Time,TemperatureF,DewpointF,PressureIn,WindDirection,WindDirectionDegrees,WindSpeedMPH,WindSpeedGustMPH,Humidity,HourlyPrecipIn,Conditions,Clouds,dailyrainin,SolarRadiationWatts/m^2,SoftwareType,DateUTC
2013-04-13 00:00:00,32.0,32.0,-100.00,WNW,292,3.0,-999.0,99,-99.99,,,-99.99,0.000000,,2013-04-13 04:00:00,
2013-04-13 00:42:00,32.0,32.0,-100.00,WNW,292,3.0,-999.0,99,-99.99,,,-99.99,0.000000,,2013-04-13 04:42:00,
2013-04-13 00:53:00,32.0,32.0,-100.00,WNW,292,3.0,-999.0,99,-99.99,,,-99.99,0.000000,,2013-04-13 04:53:00,
2013-04-13 01:00:00,31.0,31.0,-100.00,WNW,292,3.0,-999.0,99,-99.99,,,-99.99,0.000000,,2013-04-13 05:00:00,
2013-04-13 01:43:00,31.0,31.0,-100.00,WNW,292,3.0,-999.0,99,-99.99,,,-99.99,0.000000,,2013-04-13 05:43:00,
2013-04-13 01:53:00,31.0,31.0,-100.00,WNW,292,3.0,-999.0,99,-99.99,,,-99.99,0.000000,,2013-04-13 05:53:00,
2013-04-13 02:00:00,31.0,31.0,-100.00,WNW,292,0.0,-999.0,99,-99.99,,,-99.99,0.000000,,2013-04-13 06:00:00,
2013-04-13 02:49:00,31.0,31.0,-100.00,WNW,292,0.0,-999.0,99,-99.99,,,-99.99,0.000000,,2013-04-13 06:49:00,
2013-04-13 02:56:00,31.0,31.0,-100.00,WNW,292,0.0,-999.0,99,-99.99,,,-99.99,0.000000,,2013-04-13 06:56:00,
2013-04-13 03:00:00,31.0,31.0,-100.00,WNW,292,0.0,-999.0,98,-99.99,,,-99.99,0.000000,,2013-04-13 07:00:00,
2013-04-13 03:46:00,31.0,31.0,-100.00,WNW,292,0.0,-999.0,98,-99.99,,,-99.99,0.000000,,2013-04-13 07:46:00,
2013-04-13 03:58:00,31.0,31.0,-100.00,WNW,292,0.0,-999.0,98,-99.99,,,-99.99,0.000000,,2013-04-13 07:58:00,
2013-04-13 04:00:00,31.0,30.0,-100.00,West,270,0.0,-999.0,94,-99.99,,,-99.99,0.000000,,2013-04-13 08:00:00,
2013-04-13 04:47:00,31.0,30.0,-100.00,West,270,0.0,-999.0,94,-99.99,,,-99.99,0.000000,,2013-04-13 08:47:00,
2013-04-13 04:55:00,31.0,30.0,-100.00,West,270,0.0,-999.0,94,-99.99,,,-99.99,0.000000,,2013-04-13 08:55:00,
2013-04-13 05:00:00,31.0,28.0,-100.00,WNW,292,0.0,-999.0,88,-99.99,,,-99.99,0.000000,,2013-04-13 09:00:00,
2013-04-13 05:53:00,31.0,28.0,-100.00,WNW,292,0.0,-999.0,88,-99.99,,,-99.99,0.000000,,2013-04-13 09:53:00,
2013-04-13 06:00:00,31.0,28.0,-100.00,West,270,0.0,-999.0,86,-99.99,,,-99.99,0.000000,,2013-04-13 10:00:00,
2013-04-13 06:51:00,31.0,28.0,-100.00,West,270,0.0,-999.0,86,-99.99,,,-99.99,0.000000,,2013-04-13 10:51:00,
2013-04-13 06:56:00,31.0,28.0,-100.00,West,270,0.0,-999.0,86,-99.99,,,-99.99,0.000000,,2013-04-13 10:56:00,
2013-04-13 07:00:00,31.0,28.0,-100.00,WSW,247,0.0,-999.0,87,-99.99,,,-99.99,0.000000,,2013-04-13 11:00:00,
2013-04-13 07:47:00,31.0,28.0,-100.00,WSW,247,0.0,-999.0,87,-99.99,,,-99.99,0.000000,,2013-04-13 11:47:00,
2013-04-13 07:54:00,31.0,28.0,-100.00,WSW,247,0.0,-999.0,87,-99.99,,,-99.99,0.000000,,2013-04-13 11:54:00,
2013-04-13 08:00:00,31.0,30.0,-100.00,SSW,202,0.0,-999.0,94,-99.99,,,-99.99,17.400000,,2013-04-13 12:00:00,
2013-04-13 08:49:00,31.0,30.0,-100.00,SSW,202,0.0,-999.0,94,-99.99,,,-99.99,17.400000,,2013-04-13 12:49:00,
2013-04-13 08:57:00,31.0,30.0,-100.00,SSW,202,0.0,-999.0,94,-99.99,,,-99.99,17.400000,,2013-04-13 12:57:00,
2013-04-13 12:00:00,33.0,31.0,-100.00,SW,225,6.0,-999.0,91,-99.99,,,-99.99,330.600006,,2013-04-13 16:00:00,
2013-04-13 12:48:00,33.0,31.0,-100.00,SW,225,6.0,-999.0,91,-99.99,,,-99.99,330.600006,,2013-04-13 16:48:00,
2013-04-13 13:00:00,33.0,29.0,-100.00,WNW,292,7.0,-999.0,83,-99.99,,,-99.99,517.359985,,2013-04-13 17:00:00,
2013-04-13 13:45:00,33.0,29.0,-100.00,WNW,292,7.0,-999.0,83,-99.99,,,-99.99,517.359985,,2013-04-13 17:45:00,
2013-04-13 14:00:00,32.0,29.0,-100.00,WNW,292,6.0,-999.0,87,-99.99,,,-99.99,454.720001,,2013-04-13 18:00:00,
2013-04-13 14:42:00,32.0,29.0,-100.00,WNW,292,6.0,-999.0,87,-99.99,,,-99.99,454.720001,,2013-04-13 18:42:00,
2013-04-13 14:53:00,32.0,29.0,-100.00,WNW,292,6.0,-999.0,87,-99.99,,,-99.99,454.720001,,2013-04-13 18:53:00,
2013-04-13 15:00:00,32.0,27.0,-100.00,WNW,292,6.0,-999.0,80,-99.99,,,-99.99,428.040009,,2013-04-13 19:00:00,
2013-04-13 15:42:00,32.0,27.0,-100.00,WNW,292,6.0,-999.0,80,-99.99,,,-99.99,428.040009,,2013-04-13 19:42:00,
2013-04-13 15:53:00,32.0,27.0,-100.00,WNW,292,6.0,-999.0,80,-99.99,,,-99.99,428.040009,,2013-04-13 19:53:00,
2013-04-13 16:00:00,33.0,26.0,-100.00,West,270,7.0,-999.0,75,-99.99,,,-99.99,370.040009,,2013-04-13 20:00:00,
2013-04-13 16:42:00,33.0,26.0,-100.00,West,270,7.0,-999.0,75,-99.99,,,-99.99,370.040009,,2013-04-13 20:42:00,
2013-04-13 16:53:00,33.0,26.0,-100.00,West,270,7.0,-999.0,75,-99.99,,,-99.99,370.040009,,2013-04-13 20:53:00,
2013-04-13 17:00:00,34.0,26.0,-100.00,WSW,247,12.0,-999.0,73,-99.99,,,-99.99,356.119995,,2013-04-13 21:00:00,
2013-04-13 17:43:00,34.0,26.0,-100.00,WSW,247,12.0,-999.0,73,-99.99,,,-99.99,356.119995,,2013-04-13 21:43:00,
2013-04-13 17:53:00,34.0,26.0,-100.00,WSW,247,12.0,-999.0,73,-99.99,,,-99.99,356.119995,,2013-04-13 21:53:00,
2013-04-13 18:00:00,34.0,28.0,-100.00,WSW,247,13.0,-999.0,80,-99.99,,,-99.99,440.799988,,2013-04-13 22:00:00,
2013-04-13 18:42:00,34.0,28.0,-100.00,WSW,247,13.0,-999.0,80,-99.99,,,-99.99,440.799988,,2013-04-13 22:42:00,
2013-04-13 18:53:00,34.0,28.0,-100.00,WSW,247,13.0,-999.0,80,-99.99,,,-99.99,440.799988,,2013-04-13 22:53:00,
2013-04-13 19:00:00,34.0,28.0,-100.00,WSW,247,11.0,-999.0,80,-99.99,,,-99.99,261.000000,,2013-04-13 23:00:00,
2013-04-13 19:43:00,34.0,28.0,-100.00,WSW,247,11.0,-999.0,80,-99.99,,,-99.99,261.000000,,2013-04-13 23:43:00,
2013-04-13 19:53:00,34.0,28.0,-100.00,WSW,247,11.0,-999.0,80,-99.99,,,-99.99,261.000000,,2013-04-13 23:53:00,
2013-04-13 21:00:00,31.0,30.0,-100.00,WNW,292,3.0,-999.0,95,-99.99,,,-99.99,1.160000,,2013-04-14 01:00:00,
2013-04-13 21:43:00,31.0,30.0,-100.00,WNW,292,3.0,-999.0,95,-99.99,,,-99.99,1.160000,,2013-04-14 01:43:00,
2013-04-13 21:53:00,31.0,30.0,-100.00,WNW,292,3.0,-999.0,95,-99.99,,,-99.99,1.160000,,2013-04-14 01:53:00,
2013-04-13 22:00:00,31.0,31.0,-100.00,WSW,247,0.0,-999.0,99,-99.99,,,-99.99,0.000000,,2013-04-14 02:00:00,
2013-04-13 22:43:00,31.0,31.0,-100.00,WSW,247,0.0,-999.0,99,-99.99,,,-99.99,0.000000,,2013-04-14 02:43:00,
2013-04-13 22:53:00,31.0,31.0,-100.00,WSW,247,0.0,-999.0,99,-99.99,,,-99.99,0.000000,,2013-04-14 02:53:00,
2013-04-13 23:00:00,31.0,31.0,-100.00,South,180,2.0,-999.0,99,-99.99,,,-99.99,0.000000,,2013-04-14 03:00:00,
2013-04-13 23:43:00,31.0,31.0,-100.00,South,180,2.0,-999.0,99,-99.99,,,-99.99,0.000000,,2013-04-14 03:43:00,
2013-04-13 23:53:00,31.0,31.0,-100.00,South,180,2.0,-999.0,99,-99.99,,,-99.99,0.000000,,2013-04-14 03:53:00,